Terminal Aerodrome Forecast
Issued by NWS Charleston, WV

Current Version | Previous Version | Text Only | Print | Product List | Glossary Off
Versions: 1 2 3 4 5 6 7 8 9 10 11 12 13 14 15 16 17 18 19 20 21 22 23

307
FTUS41 KRLX 200500 AAB
TAFHTS
TAF AMD
KHTS 200500Z 2005/2024 00000KT 1SM BR VV002
     FM200800 00000KT 1/4SM FG VV001
     FM201300 00000KT 1SM BR BKN001
     FM201500 00000KT P6SM SCT035
     FM201700 VRB03KT P6SM FEW200=

USA.gov is the U.S. government's official web portal to all federal, state and local government web resources and services.